Time;durP1;ratioP1;P1;durP2;ratioP2;P2;SDS_P1;SDS_P2;PMS_P1;PMS_P2;Temp;Humidity;BMP_temperature;BMP_pressure;BME280_temperature;BME280_humidity;BME280_pressure;Samples;Min_cycle;Max_cycle;Signal;HPM_P1;HPM_P2
2021/06/14 05:00:33;;;;;;;2.35;1.10;;;;;;;22.89;49.45;94639.34;6082987;23;20041;31
2021/06/14 05:02:59;;;;;;;1.30;0.93;;;;;;;22.66;49.46;94666.91;4833687;29;20808;-72
2021/06/14 05:05:25;;;;;;;2.13;0.90;;;;;;;22.63;49.09;94661.28;4857872;29;20041;-71
2021/06/14 05:07:50;;;;;;;3.25;1.05;;;;;;;22.46;49.60;94667.50;4857581;29;20603;-74
2021/06/14 05:10:16;;;;;;;1.65;1.13;;;;;;;23.00;48.40;94664.75;4858949;29;20044;-74
2021/06/14 05:12:41;;;;;;;1.65;1.00;;;;;;;21.24;50.54;94667.19;4872152;29;20170;-74
2021/06/14 05:15:07;;;;;;;1.48;1.20;;;;;;;19.40;55.21;94673.19;4858727;29;20454;-72
2021/06/14 05:17:33;;;;;;;0.77;0.77;;;;;;;19.26;58.50;94671.84;4872330;29;20120;-71
2021/06/14 05:19:58;;;;;;;2.92;1.10;;;;;;;21.16;52.26;94667.56;4858352;29;20033;-74
2021/06/14 05:22:24;;;;;;;2.83;1.27;;;;;;;19.60;56.07;94654.41;4873958;29;20036;-70
2021/06/14 05:24:49;;;;;;;1.05;0.95;;;;;;;21.33;54.61;94670.19;4873556;29;20029;-70
2021/06/14 05:27:15;;;;;;;2.53;1.10;;;;;;;22.77;49.89;94662.47;4873483;29;20036;-72
2021/06/14 05:29:40;;;;;;;1.58;1.17;;;;;;;22.62;49.09;94672.91;4872374;29;20033;-72
2021/06/14 05:32:06;;;;;;;4.65;1.00;;;;;;;22.95;48.25;94672.66;4873613;29;20025;-72
2021/06/14 05:34:32;;;;;;;3.60;0.95;;;;;;;22.89;50.37;94668.38;4873802;29;20028;-71
2021/06/14 05:36:57;;;;;;;1.65;1.00;;;;;;;23.99;47.95;94670.78;4857919;29;20036;-74
2021/06/14 05:39:23;;;;;;;2.97;0.90;;;;;;;24.54;46.29;94664.81;4872026;29;20036;-75
2021/06/14 05:41:49;;;;;;;0.80;0.80;;;;;;;24.39;45.46;94666.69;4873554;29;20076;-72
2021/06/14 05:44:15;;;;;;;1.45;0.90;;;;;;;24.30;46.07;94663.75;4871721;29;20029;-74
2021/06/14 05:46:40;;;;;;;1.13;0.63;;;;;;;22.70;48.41;94664.56;4859583;29;20561;-73
2021/06/14 05:49:06;;;;;;;1.10;0.77;;;;;;;21.24;50.86;94666.38;4871417;29;20029;-72
2021/06/14 05:51:31;;;;;;;2.17;1.00;;;;;;;20.96;52.64;94667.28;4881053;29;20044;-73
2021/06/14 05:53:57;;;;;;;2.35;1.08;;;;;;;20.89;53.39;94664.81;4876122;29;20024;-73
2021/06/14 05:56:23;;;;;;;0.95;0.85;;;;;;;21.30;52.85;94681.22;4865649;29;20406;-75
2021/06/14 05:58:48;;;;;;;0.90;0.88;;;;;;;21.69;51.99;94669.59;4875823;29;20024;-68
2021/06/14 06:01:14;;;;;;;1.05;0.98;;;;;;;21.45;53.33;94670.84;4874166;29;20045;-71
2021/06/14 06:03:39;;;;;;;1.00;0.60;;;;;;;23.77;49.42;94667.56;4875502;29;20028;-74
2021/06/14 06:06:05;;;;;;;1.20;0.93;;;;;;;25.44;44.15;94668.47;4875457;29;20044;-77
2021/06/14 06:08:30;;;;;;;0.95;0.65;;;;;;;23.80;45.52;94663.59;4889977;29;20063;-71
2021/06/14 06:10:55;;;;;;;0.63;0.63;;;;;;;22.56;49.09;94672.06;4891439;29;20032;-73
2021/06/14 06:13:21;;;;;;;0.60;0.60;;;;;;;25.39;46.23;94665.84;4889510;29;20092;-73
2021/06/14 06:15:46;;;;;;;0.95;0.70;;;;;;;26.42;41.69;94668.59;4874711;29;20090;-72
2021/06/14 06:18:12;;;;;;;2.67;0.70;;;;;;;26.54;41.48;94671.69;4872878;29;20025;-73
2021/06/14 06:20:37;;;;;;;0.68;0.50;;;;;;;26.80;40.81;94674.94;4863637;29;20041;-72
2021/06/14 06:23:04;;;;;;;3.15;0.70;;;;;;;26.23;39.61;94662.34;4872648;29;20045;-72
2021/06/14 06:25:30;;;;;;;3.33;0.60;;;;;;;24.57;42.63;94660.84;4851116;29;20045;-73
2021/06/14 06:27:55;;;;;;;0.80;0.75;;;;;;;23.62;43.55;94667.50;4877298;29;20116;-71
2021/06/14 06:30:25;;;;;;;2.67;0.75;;;;;;;23.26;45.01;94663.06;4861442;29;20036;-73
2021/06/14 06:32:51;;;;;;;2.15;1.00;;;;;;;21.97;47.28;94665.94;4843423;29;20041;-71
2021/06/14 06:35:17;;;;;;;3.15;0.82;;;;;;;22.17;48.95;94666.16;4884422;29;20037;-72
2021/06/14 06:37:42;;;;;;;1.13;0.80;;;;;;;21.66;48.30;94662.16;4871060;29;20036;-71
2021/06/14 06:40:08;;;;;;;2.42;0.88;;;;;;;20.95;50.01;94663.84;4871776;29;20029;-72
2021/06/14 06:42:34;;;;;;;3.30;0.88;;;;;;;20.88;51.72;94665.03;4853930;29;20025;-72
2021/06/14 06:44:59;;;;;;;0.88;0.80;;;;;;;20.83;52.13;94664.97;4873521;29;20100;-71
2021/06/14 06:47:25;;;;;;;0.93;0.80;;;;;;;20.34;53.49;94666.56;4874601;29;20040;-71
2021/06/14 06:49:50;;;;;;;1.77;0.73;;;;;;;19.98;54.00;94667.75;4874746;29;20044;-70
2021/06/14 06:52:16;;;;;;;0.82;0.70;;;;;;;19.64;54.27;94668.69;4871286;29;20041;-71
2021/06/14 06:54:41;;;;;;;0.95;0.80;;;;;;;19.44;54.45;94671.72;4874891;29;20041;-71
2021/06/14 06:57:07;;;;;;;0.93;0.73;;;;;;;19.50;55.46;94665.50;4860914;29;20030;-70
2021/06/14 06:59:33;;;;;;;3.28;0.90;;;;;;;19.42;55.88;94671.16;4853998;29;20089;-69
2021/06/14 07:01:58;;;;;;;1.00;0.90;;;;;;;19.40;56.72;94662.69;4852093;29;20114;-71
2021/06/14 07:04:23;;;;;;;2.42;0.80;;;;;;;19.57;56.24;94668.81;4880133;29;20071;-70
2021/06/14 07:06:49;;;;;;;2.13;0.80;;;;;;;20.02;54.73;94653.09;4875687;29;20028;-71
2021/06/14 07:09:14;;;;;;;0.75;0.73;;;;;;;20.02;54.75;94655.72;4854126;29;20029;-70
2021/06/14 07:11:40;;;;;;;2.20;0.90;;;;;;;20.15;53.56;94660.69;4874554;29;20480;-72
2021/06/14 07:14:06;;;;;;;1.52;1.00;;;;;;;20.27;53.28;94661.47;4854717;29;20108;-71
2021/06/14 07:16:31;;;;;;;0.88;0.88;;;;;;;20.36;53.29;94664.50;4876075;29;20517;-73
2021/06/14 07:18:57;;;;;;;1.05;0.90;;;;;;;20.02;53.62;94658.34;4874738;29;20037;-70
2021/06/14 07:21:22;;;;;;;1.48;0.80;;;;;;;19.41;55.67;94648.53;4891499;29;20037;-70
2021/06/14 07:23:48;;;;;;;1.35;0.82;;;;;;;19.25;57.56;94646.59;4875672;29;20028;-72
2021/06/14 07:26:14;;;;;;;0.98;0.93;;;;;;;19.12;56.92;94652.91;4889894;29;20459;-71
2021/06/14 07:28:39;;;;;;;0.80;0.80;;;;;;;18.90;57.22;94657.94;4891561;29;20464;-70
2021/06/14 07:31:05;;;;;;;1.23;0.90;;;;;;;18.91;56.88;94650.88;4858599;29;20045;-70
2021/06/14 07:33:31;;;;;;;1.52;0.77;;;;;;;18.87;56.16;94649.72;4875866;29;20037;-71
2021/06/14 07:35:56;;;;;;;0.68;0.60;;;;;;;18.73;56.67;94648.34;4874432;29;20495;-70
2021/06/14 07:38:22;;;;;;;0.98;0.80;;;;;;;18.58;56.86;94650.63;4858355;29;20037;-70
2021/06/14 07:40:47;;;;;;;3.45;0.77;;;;;;;18.43;57.08;94649.19;4880706;29;20061;-73
2021/06/14 07:43:14;;;;;;;1.10;0.80;;;;;;;18.41;56.43;94655.72;4874513;29;20025;-76
2021/06/14 07:45:40;;;;;;;1.05;0.68;;;;;;;18.32;55.89;94652.63;4867647;29;20033;-74
2021/06/14 07:48:07;;;;;;;0.85;0.77;;;;;;;18.66;55.91;94656.31;4870286;29;20095;-75
2021/06/14 07:50:32;;;;;;;1.58;0.93;;;;;;;19.01;55.71;94666.81;4877242;29;20028;-76
2021/06/14 07:52:58;;;;;;;0.80;0.80;;;;;;;18.98;55.06;94659.41;4875192;29;20037;-80
2021/06/14 07:55:23;;;;;;;1.48;0.68;;;;;;;19.06;55.50;94661.69;4859035;29;20033;-80
2021/06/14 07:57:49;;;;;;;1.23;1.00;;;;;;;18.94;55.41;94650.41;4873999;29;20029;-73
2021/06/14 08:00:15;;;;;;;0.98;0.60;;;;;;;19.24;54.73;94651.03;4873580;29;20037;-75
2021/06/14 08:02:40;;;;;;;1.35;0.90;;;;;;;19.51;55.12;94653.19;4875857;29;20059;-75
2021/06/14 08:05:07;;;;;;;1.38;0.75;;;;;;;19.62;54.33;94650.50;4871109;29;20428;-81
2021/06/14 08:07:33;;;;;;;0.82;0.82;;;;;;;19.90;53.41;94649.75;4857532;29;20136;-79
2021/06/14 08:10:03;;;;;;;1.20;1.05;;;;;;;19.80;54.00;94649.53;4868085;29;20045;-75
2021/06/14 08:12:31;;;;;;;2.78;1.02;;;;;;;20.19;53.89;94651.31;4869530;29;20098;-75
2021/06/14 08:14:56;;;;;;;0.65;0.60;;;;;;;20.59;53.75;94647.75;4873871;29;20037;-75
2021/06/14 08:17:22;;;;;;;1.10;0.95;;;;;;;20.63;52.62;94656.78;4872309;29;20043;-78
2021/06/14 08:25:03;;;;;;;1.13;1.00;;;;;;;22.71;46.90;94643.16;4874597;29;20495;-78
2021/06/14 08:27:30;;;;;;;1.30;0.68;;;;;;;23.97;44.02;94640.34;4871770;29;20105;-77
2021/06/14 08:29:55;;;;;;;1.13;0.82;;;;;;;25.40;41.25;94640.06;4849431;29;20506;-77
2021/06/14 08:32:20;;;;;;;1.52;0.70;;;;;;;25.75;42.44;94637.31;4864509;29;20045;-73
2021/06/14 08:34:46;;;;;;;0.68;0.50;;;;;;;25.56;41.44;94631.03;4858134;29;20029;-76
2021/06/14 08:37:12;;;;;;;1.42;0.90;;;;;;;24.56;41.96;94625.59;4845745;29;20093;-74
2021/06/14 08:39:37;;;;;;;1.95;0.70;;;;;;;24.20;42.26;94618.72;4858293;29;20021;-76
2021/06/14 08:42:03;;;;;;;1.52;0.80;;;;;;;23.79;41.82;94620.44;4836364;29;20400;-75
2021/06/14 08:44:28;;;;;;;1.55;0.60;;;;;;;23.70;42.22;94614.09;4872501;29;20037;-76
2021/06/14 08:46:54;;;;;;;1.08;0.68;;;;;;;23.72;40.78;94629.72;4843517;29;20112;-81
2021/06/14 08:49:20;;;;;;;0.82;0.63;;;;;;;23.04;42.28;94615.63;4857104;29;20459;-74
2021/06/14 08:51:45;;;;;;;0.88;0.50;;;;;;;22.81;43.22;94618.66;4874401;29;20033;-85
2021/06/14 08:54:11;;;;;;;0.50;0.47;;;;;;;22.48;43.15;94623.16;4870021;29;20034;-77
2021/06/14 08:56:36;;;;;;;3.08;0.65;;;;;;;21.96;44.41;94628.22;4864002;29;20033;-78
2021/06/14 08:59:03;;;;;;;1.38;0.63;;;;;;;21.00;45.70;94631.50;4866349;29;20095;-74
2021/06/14 09:01:28;;;;;;;1.27;0.63;;;;;;;20.15;47.77;94628.34;4862621;29;20054;-77
2021/06/14 09:03:54;;;;;;;0.90;0.77;;;;;;;19.38;51.18;94631.38;4855209;29;20485;-71
2021/06/14 09:06:19;;;;;;;0.77;0.75;;;;;;;19.06;52.08;94632.81;4852309;29;20559;-72
2021/06/14 09:09:02;;;;;;;1.45;0.68;;;;;;;19.12;51.07;94631.88;4854507;29;20053;-76
2021/06/14 09:11:28;;;;;;;3.10;1.08;;;;;;;19.66;49.55;94630.63;4855007;29;20044;-75
2021/06/14 09:13:54;;;;;;;0.57;0.52;;;;;;;19.60;51.08;94631.56;4856230;29;20093;-72
2021/06/14 09:16:20;;;;;;;1.10;0.80;;;;;;;19.49;50.88;94639.50;4872338;29;20053;-74
2021/06/14 09:18:45;;;;;;;0.73;0.60;;;;;;;19.42;50.55;94637.78;4871542;29;20037;-73
2021/06/14 09:21:14;;;;;;;2.50;0.75;;;;;;;19.34;51.66;94637.31;4855038;29;20053;-73
2021/06/14 09:23:45;;;;;;;3.80;0.60;;;;;;;19.62;51.04;94640.00;4856370;29;20568;-81
2021/06/14 09:26:33;;;;;;;0.50;0.50;;;;;;;19.84;52.18;94645.41;4873653;29;20145;-75
2021/06/14 09:29:01;;;;;;;0.60;0.60;;;;;;;20.21;52.00;94640.53;4867270;29;20084;-74
2021/06/14 09:31:29;;;;;;;4.10;0.90;;;;;;;20.31;51.25;94638.09;4872575;29;20037;-69
2021/06/14 09:33:55;;;;;;;0.82;0.80;;;;;;;20.84;51.67;94635.75;4871222;29;20025;-76
2021/06/14 09:36:21;;;;;;;0.90;0.75;;;;;;;21.18;50.91;94649.72;4866188;29;20097;-74
2021/06/14 09:38:46;;;;;;;1.00;0.80;;;;;;;20.82;50.40;94632.59;4870908;29;20060;-74
2021/06/14 09:41:14;;;;;;;2.13;0.95;;;;;;;20.64;51.39;94634.69;4869124;29;20033;-75
2021/06/14 09:43:41;;;;;;;1.30;0.88;;;;;;;20.89;50.71;94646.38;4851673;29;20037;-75
2021/06/14 09:46:21;;;;;;;1.63;0.82;;;;;;;20.65;51.11;94638.88;4859548;29;20037;-72
2021/06/14 09:48:47;;;;;;;1.25;0.98;;;;;;;20.40;49.83;94644.56;4870625;29;20064;-73
2021/06/14 09:51:13;;;;;;;1.55;1.35;;;;;;;20.34;49.65;94633.16;4866892;29;20052;-76
2021/06/14 09:53:58;;;;;;;1.13;1.02;;;;;;;20.40;50.87;94632.22;4851661;29;20232;-72
2021/06/14 09:56:27;;;;;;;1.38;1.10;;;;;;;21.06;51.29;94635.81;4855671;29;20081;-74
2021/06/14 09:58:54;;;;;;;1.95;0.65;;;;;;;21.46;51.40;94638.19;4870022;29;20033;-73
2021/06/14 10:01:24;;;;;;;1.25;0.65;;;;;;;21.48;49.43;94642.16;4868778;29;20068;-72
2021/06/14 10:03:50;;;;;;;5.78;0.50;;;;;;;20.95;49.74;94634.88;4853163;29;20427;-74
2021/06/14 10:06:28;;;;;;;1.38;0.90;;;;;;;20.30;50.83;94634.69;4852883;29;20033;-73
2021/06/14 10:08:54;;;;;;;0.90;0.70;;;;;;;20.28;51.88;94641.22;4868482;29;20479;-75
2021/06/14 10:11:19;;;;;;;2.22;1.00;;;;;;;20.12;50.40;94636.69;4865098;29;20049;-73
2021/06/14 10:13:49;;;;;;;1.52;0.95;;;;;;;20.03;54.60;94646.00;4870246;29;20033;-73
2021/06/14 10:16:21;;;;;;;1.02;0.80;;;;;;;20.05;53.33;94647.38;4855403;29;20686;-75
2021/06/14 10:18:54;;;;;;;1.33;0.85;;;;;;;20.03;51.99;94631.03;4873183;29;20088;-72
2021/06/14 10:21:24;;;;;;;2.63;0.73;;;;;;;20.00;53.50;94632.28;4875419;29;20112;-72
2021/06/14 10:23:52;;;;;;;1.00;0.90;;;;;;;19.92;54.33;94637.94;4874426;29;20044;-75
2021/06/14 10:26:19;;;;;;;1.80;0.82;;;;;;;20.08;55.30;94635.56;4858519;29;20044;-72
2021/06/14 10:28:45;;;;;;;1.08;0.93;;;;;;;19.95;54.61;94636.66;4873967;29;20032;-72
2021/06/14 10:31:10;;;;;;;1.75;1.00;;;;;;;20.01;55.26;94630.47;4865209;29;20415;-72
2021/06/14 10:33:36;;;;;;;1.13;0.90;;;;;;;19.80;54.15;94639.03;4860160;29;20048;-74
2021/06/14 10:36:01;;;;;;;2.05;1.00;;;;;;;18.98;55.88;94637.59;4868013;29;20033;-74
2021/06/14 10:38:27;;;;;;;5.85;0.98;;;;;;;18.79;56.19;94639.56;4867922;29;20036;-71
2021/06/14 10:40:52;;;;;;;0.95;0.60;;;;;;;18.66;56.79;94643.22;4855119;29;20037;-72
2021/06/14 10:43:19;;;;;;;0.88;0.85;;;;;;;18.23;56.63;94640.06;4862769;29;20044;-73
2021/06/14 10:45:44;;;;;;;0.47;0.47;;;;;;;18.10;56.38;94635.81;4875236;29;20025;-71
2021/06/14 10:48:11;;;;;;;0.80;0.57;;;;;;;18.09;56.68;94636.84;4874187;29;20092;-71
2021/06/14 10:50:36;;;;;;;4.13;0.80;;;;;;;18.18;57.13;94627.63;4874366;29;20485;-71
2021/06/14 10:53:02;;;;;;;2.78;0.80;;;;;;;18.44;56.72;94624.59;4850354;29;20029;-72
2021/06/14 10:55:30;;;;;;;1.75;0.65;;;;;;;18.49;56.51;94626.53;4850894;29;20142;-73
2021/06/14 10:57:56;;;;;;;1.10;0.75;;;;;;;18.48;57.30;94618.88;4843141;29;20465;-73
2021/06/14 11:00:22;;;;;;;3.25;0.80;;;;;;;18.66;56.87;94611.72;4874883;29;20041;-71
2021/06/14 11:03:08;;;;;;;1.23;0.95;;;;;;;18.72;58.27;94608.19;4872767;29;20044;-73
2021/06/14 11:05:39;;;;;;;0.82;0.75;;;;;;;18.72;58.19;94602.16;4843821;29;20483;-71
2021/06/14 11:08:15;;;;;;;0.90;0.90;;;;;;;19.22;58.34;94605.03;4875162;29;20502;-72
2021/06/14 11:10:41;;;;;;;0.60;0.57;;;;;;;18.83;57.19;94607.38;4873828;29;20407;-73
2021/06/14 11:13:11;;;;;;;0.55;0.55;;;;;;;18.88;57.45;94610.09;4874153;29;20412;-72
2021/06/14 11:15:39;;;;;;;4.10;0.88;;;;;;;18.95;57.55;94607.38;4858427;29;20029;-73
2021/06/14 11:18:07;;;;;;;1.33;0.80;;;;;;;19.09;57.54;94613.97;4858429;29;20486;-75
2021/06/14 11:20:36;;;;;;;2.35;1.13;;;;;;;19.05;56.40;94618.06;4858460;29;20025;-72
2021/06/14 11:23:02;;;;;;;1.42;0.80;;;;;;;19.03;57.08;94606.22;4875294;29;20032;-71
2021/06/14 11:25:30;;;;;;;2.78;1.00;;;;;;;19.23;56.09;94609.25;4858157;29;20134;-73
2021/06/14 11:28:01;;;;;;;2.15;1.10;;;;;;;19.49;55.70;94605.34;4873688;29;20392;-71
2021/06/14 11:30:32;;;;;;;6.82;1.10;;;;;;;19.62;56.43;94607.69;4858458;29;20033;-70
2021/06/14 11:32:58;;;;;;;3.97;1.05;;;;;;;19.65;56.52;94604.59;4857299;29;20033;-71
2021/06/14 11:35:23;;;;;;;1.95;0.90;;;;;;;19.67;57.71;94603.31;4858202;29;20056;-73
2021/06/14 11:37:49;;;;;;;2.05;1.13;;;;;;;20.14;56.32;94605.69;4851628;29;20403;-73
2021/06/14 11:40:17;;;;;;;1.17;0.90;;;;;;;19.97;56.46;94605.69;4858202;29;20032;-74
2021/06/14 11:42:51;;;;;;;1.98;0.90;;;;;;;20.38;55.70;94599.28;4873075;29;20998;-71
2021/06/14 11:45:38;;;;;;;1.77;0.90;;;;;;;21.54;54.20;94592.97;4889025;29;20036;-71
2021/06/14 11:48:05;;;;;;;1.63;1.52;;;;;;;22.22;51.60;94584.41;4854799;29;20136;-73
2021/06/14 11:50:31;;;;;;;1.77;0.82;;;;;;;21.52;51.58;94580.00;4839573;29;20030;-73
2021/06/14 11:53:01;;;;;;;1.13;1.08;;;;;;;21.26;52.25;94591.31;4839366;29;20045;-72
2021/06/14 11:55:28;;;;;;;1.33;1.10;;;;;;;20.33;52.90;94596.56;4854248;29;20033;-76
2021/06/14 11:57:55;;;;;;;1.65;0.90;;;;;;;19.50;56.89;94602.47;4821306;29;23133;-72
2021/06/14 12:00:32;;;;;;;2.38;1.00;;;;;;;18.83;59.90;94617.88;4873512;29;20520;-71
2021/06/14 12:02:59;;;;;;;2.17;1.00;;;;;;;17.98;65.45;94653.31;4873241;29;20080;-69
2021/06/14 12:05:32;;;;;;;5.18;0.80;;;;;;;16.55;69.78;94643.47;4868019;29;20215;-70
2021/06/14 12:07:57;;;;;;;1.98;0.98;;;;;;;16.27;70.64;94625.59;4857305;29;20029;-71
2021/06/14 12:10:24;;;;;;;1.83;0.80;;;;;;;16.06;70.52;94623.34;4872963;29;20439;-71
2021/06/14 12:13:06;;;;;;;3.47;0.82;;;;;;;16.05;69.68;94608.69;4857406;29;20043;-72
2021/06/14 12:15:33;;;;;;;1.73;1.00;;;;;;;16.16;75.09;94606.19;4858435;29;20041;-72
2021/06/14 12:17:58;;;;;;;1.00;0.90;;;;;;;16.08;76.71;94613.50;4872659;29;20029;-73
2021/06/14 12:20:30;;;;;;;1.95;1.05;;;;;;;15.45;74.17;94603.00;4872684;29;20081;-78
2021/06/14 12:23:09;;;;;;;3.92;1.30;;;;;;;15.74;79.21;94602.47;4857865;29;20037;-74
2021/06/14 12:25:37;;;;;;;2.95;1.25;;;;;;;15.75;80.20;94604.06;4872970;29;20025;-74
2021/06/14 12:28:04;;;;;;;3.65;1.15;;;;;;;16.16;77.70;94605.38;4874320;29;20048;-76
2021/06/14 12:30:30;;;;;;;2.72;1.23;;;;;;;15.65;79.50;94600.31;4857891;29;20368;-83
2021/06/14 12:32:56;;;;;;;1.00;0.90;;;;;;;15.08;82.27;94603.78;4872845;29;20029;-77
2021/06/14 12:35:22;;;;;;;1.77;1.25;;;;;;;15.20;80.84;94613.38;4857874;29;20105;-81
2021/06/14 12:37:48;;;;;;;1.13;1.02;;;;;;;15.50;80.92;94612.88;4857106;29;20029;-78
2021/06/14 12:40:19;;;;;;;1.45;0.90;;;;;;;15.42;81.01;94616.47;4872740;29;20047;-79
2021/06/14 12:42:44;;;;;;;1.10;1.00;;;;;;;15.47;81.32;94611.44;4856512;29;20419;-75
2021/06/14 12:45:18;;;;;;;1.30;1.20;;;;;;;16.13;78.48;94606.59;4857083;29;20033;-81
2021/06/14 12:47:48;;;;;;;1.23;0.90;;;;;;;15.67;78.82;94587.84;4873363;29;20044;-78
2021/06/14 12:50:15;;;;;;;;;;;;;;;15.23;82.43;94586.06;4858279;29;20029;-85
2021/06/14 12:52:40;;;;;;;1.45;1.35;;;;;;;15.68;80.59;94576.38;4872875;29;20252;-72
2021/06/14 12:55:06;;;;;;;2.40;1.30;;;;;;;15.59;79.38;94572.44;4872197;29;20036;-78
2021/06/14 12:57:36;;;;;;;1.17;1.08;;;;;;;15.46;78.74;94568.06;4841759;29;20145;-77
2021/06/14 13:00:04;;;;;;;;;;;;;;;15.73;76.84;94566.91;4872339;29;20521;-73
2021/06/14 13:02:30;;;;;;;1.00;0.80;;;;;;;15.64;76.74;94567.38;4858021;29;20511;-75
2021/06/14 13:04:55;;;;;;;2.10;1.00;;;;;;;15.90;79.69;94572.41;4856884;29;20029;-73
2021/06/14 13:07:21;;;;;;;2.75;0.90;;;;;;;15.76;81.60;94573.53;4872251;29;20040;-73
2021/06/14 13:09:48;;;;;;;1.20;1.10;;;;;;;15.09;80.56;94568.88;4872223;29;20464;-73
2021/06/14 13:12:25;;;;;;;1.42;1.00;;;;;;;14.94;82.67;94566.53;4871253;29;20108;-78
2021/06/14 13:14:50;;;;;;;0.95;0.80;;;;;;;14.47;81.92;94559.84;4856896;29;20741;-68
2021/06/14 13:17:26;;;;;;;2.53;1.50;;;;;;;14.38;83.38;94570.69;4855706;29;20040;-78
2021/06/14 13:19:51;;;;;;;2.92;1.90;;;;;;;14.23;84.85;94563.06;4857141;29;20092;-75
2021/06/14 13:22:21;;;;;;;5.13;2.17;;;;;;;14.34;85.86;94572.09;4856035;29;20033;-69
2021/06/14 13:24:47;;;;;;;3.53;2.05;;;;;;;14.08;85.00;94570.28;4870872;29;20659;-70
2021/06/14 13:27:13;;;;;;;1.40;1.17;;;;;;;14.20;83.37;94561.66;4872507;29;20435;-84
2021/06/14 13:29:39;;;;;;;3.30;1.52;;;;;;;14.11;84.54;94568.09;4859549;29;20040;-72
2021/06/14 13:32:05;;;;;;;1.58;1.48;;;;;;;14.21;83.84;94571.09;4877525;29;20412;-75
2021/06/14 13:34:31;;;;;;;1.83;1.50;;;;;;;14.11;83.40;94562.88;4871954;29;20586;-75
2021/06/14 13:36:56;;;;;;;3.35;1.55;;;;;;;13.98;83.17;94568.09;4878296;29;20038;-73
2021/06/14 13:39:27;;;;;;;3.70;1.02;;;;;;;13.89;83.34;94565.91;4870425;29;20096;-76
2021/06/14 13:42:08;;;;;;;3.03;2.15;;;;;;;14.13;83.95;94563.47;4870463;29;20068;-76
2021/06/14 13:44:34;;;;;;;3.90;1.45;;;;;;;14.11;83.83;94549.88;4871685;29;20101;-78
2021/06/14 13:47:01;;;;;;;3.38;1.67;;;;;;;14.00;81.97;94558.28;4854978;29;20037;-75
2021/06/14 13:49:36;;;;;;;4.53;1.48;;;;;;;14.15;83.04;94558.88;4870716;29;20057;-71
2021/06/14 13:52:12;;;;;;;0.90;0.90;;;;;;;14.06;83.19;94551.47;4882965;29;20037;-73
2021/06/14 13:54:38;;;;;;;1.83;1.50;;;;;;;14.15;82.86;94552.88;4870422;29;20072;-69
2021/06/14 13:57:14;;;;;;;1.00;1.00;;;;;;;13.90;82.31;94546.69;4872002;29;20029;-73
2021/06/14 13:59:40;;;;;;;1.23;1.10;;;;;;;13.76;83.04;94548.47;4871113;29;20025;-72
2021/06/14 14:02:22;;;;;;;1.08;0.95;;;;;;;13.73;81.86;94556.69;4868725;29;20045;-72
2021/06/14 14:04:48;;;;;;;1.02;0.90;;;;;;;13.67;79.19;94557.50;4881462;29;20500;-79
2021/06/14 14:07:13;;;;;;;0.82;0.80;;;;;;;13.50;78.95;94556.25;4872248;29;20170;-74
2021/06/14 14:09:39;;;;;;;1.25;0.88;;;;;;;13.59;79.16;94565.47;4869659;29;20029;-71
2021/06/14 14:12:05;;;;;;;1.63;0.75;;;;;;;13.33;80.47;94562.81;4855508;29;20427;-78
2021/06/14 14:14:31;;;;;;;1.33;0.98;;;;;;;13.25;82.50;94553.41;4855467;29;20523;-72
2021/06/14 14:16:56;;;;;;;1.70;1.30;;;;;;;13.48;84.88;94571.28;4870976;29;20527;-75
2021/06/14 14:19:22;;;;;;;2.35;1.30;;;;;;;13.72;86.00;94576.69;4855173;29;20051;-70
2021/06/14 14:21:49;;;;;;;3.28;1.40;;;;;;;14.02;84.18;94576.31;4870561;29;20438;-72
2021/06/14 14:24:14;;;;;;;1.92;0.82;;;;;;;13.72;82.12;94576.69;4851737;29;20112;-71
2021/06/14 14:26:41;;;;;;;0.90;0.60;;;;;;;13.80;82.42;94578.31;4870051;29;20045;-71
2021/06/14 14:29:21;;;;;;;1.05;0.80;;;;;;;13.93;81.31;94557.50;4855929;29;20043;-72
2021/06/14 14:31:51;;;;;;;0.80;0.65;;;;;;;14.15;80.92;94551.06;4871435;29;20196;-73
2021/06/14 14:34:17;;;;;;;1.00;0.82;;;;;;;14.43;82.25;94548.22;4870570;29;20475;-71
2021/06/14 14:36:47;;;;;;;2.88;1.30;;;;;;;14.92;81.76;94547.69;4870954;29;20468;-71
2021/06/14 14:39:16;;;;;;;6.55;3.17;;;;;;;14.62;77.69;94538.75;4870969;29;20036;-76
2021/06/14 14:41:44;;;;;;;2.33;1.88;;;;;;;14.05;79.63;94539.44;4871387;29;20039;-75
2021/06/14 14:44:09;;;;;;;4.15;1.30;;;;;;;14.24;80.16;94531.63;4870700;29;20041;-75
2021/06/14 14:46:35;;;;;;;2.35;1.40;;;;;;;14.71;80.05;94546.13;4859775;29;20484;-71
2021/06/14 14:49:02;;;;;;;1.08;0.90;;;;;;;15.02;80.63;94547.25;4871465;29;20054;-70
2021/06/14 14:51:27;;;;;;;1.40;0.90;;;;;;;14.89;80.34;94548.09;4870746;29;20068;-69
2021/06/14 14:54:02;;;;;;;0.70;0.70;;;;;;;14.82;79.76;94555.13;4871089;29;20075;-70
2021/06/14 14:56:29;;;;;;;1.73;0.75;;;;;;;14.29;79.13;94551.06;4871094;29;20026;-72
2021/06/14 14:58:55;;;;;;;0.80;0.63;;;;;;;14.29;82.11;94553.66;4878214;29;20025;-72
2021/06/14 15:01:20;;;;;;;3.10;1.80;;;;;;;14.21;84.16;94546.84;4844512;29;20416;-72
2021/06/14 15:03:46;;;;;;;2.22;1.08;;;;;;;14.08;85.54;94545.06;4840630;29;20034;-72
2021/06/14 15:06:11;;;;;;;3.00;2.00;;;;;;;14.34;86.30;94543.44;4855667;29;20040;-72
2021/06/14 15:08:36;;;;;;;3.28;1.58;;;;;;;14.12;85.67;94554.09;4873587;29;20040;-72
2021/06/14 15:11:02;;;;;;;1.05;1.00;;;;;;;14.12;86.01;94550.66;4874249;29;20037;-72
2021/06/14 15:13:27;;;;;;;3.05;2.75;;;;;;;14.17;84.56;94550.84;4873403;29;20411;-72
2021/06/14 15:15:53;;;;;;;4.78;3.08;;;;;;;14.43;84.42;94552.63;4849040;29;20079;-72
2021/06/14 15:18:19;;;;;;;4.70;2.75;;;;;;;14.52;84.64;94554.81;4869329;29;20411;-72
2021/06/14 15:20:45;;;;;;;1.25;1.13;;;;;;;14.29;82.85;94546.63;4873160;29;20060;-72
2021/06/14 15:23:11;;;;;;;3.60;1.08;;;;;;;14.40;83.25;94547.84;4873809;29;20124;-72
2021/06/14 15:25:37;;;;;;;2.17;1.20;;;;;;;13.80;85.34;94554.88;4874054;29;20512;-73
2021/06/14 15:28:03;;;;;;;1.98;1.02;;;;;;;13.91;86.90;94553.47;4874212;29;20455;-73
2021/06/14 15:30:28;;;;;;;0.95;0.90;;;;;;;13.89;87.17;94555.47;4874016;29;20098;-73
2021/06/14 15:32:54;;;;;;;1.58;1.05;;;;;;;13.96;86.01;94551.09;4873810;29;20491;-72
2021/06/14 15:35:23;;;;;;;1.33;1.05;;;;;;;13.93;86.68;94567.91;4873794;29;20035;-71
2021/06/14 15:37:50;;;;;;;1.95;1.58;;;;;;;14.05;85.71;94568.91;4873518;29;20037;-72
2021/06/14 15:40:16;;;;;;;1.42;1.20;;;;;;;14.13;85.76;94575.69;4873538;29;20048;-71
2021/06/14 15:42:43;;;;;;;1.58;1.45;;;;;;;14.13;87.08;94575.69;4873164;29;20029;-69
2021/06/14 15:45:09;;;;;;;2.58;1.25;;;;;;;14.16;86.52;94567.47;4874086;29;20029;-72
2021/06/14 15:47:35;;;;;;;3.33;1.20;;;;;;;13.82;87.63;94559.88;4873100;29;20079;-72
2021/06/14 15:50:00;;;;;;;1.73;1.30;;;;;;;13.48;91.24;94564.28;4873037;29;20036;-77
2021/06/14 15:52:26;;;;;;;2.03;1.15;;;;;;;13.18;89.93;94550.81;4845147;29;20522;-77
2021/06/14 15:54:51;;;;;;;3.40;1.63;;;;;;;13.31;89.67;94555.22;4864962;29;20036;-77
2021/06/14 15:57:17;;;;;;;1.40;1.15;;;;;;;13.26;89.50;94557.59;4872675;29;20029;-79
2021/06/14 15:59:42;;;;;;;2.05;1.40;;;;;;;13.29;89.33;94564.22;4873384;29;20029;-75
2021/06/14 16:02:08;;;;;;;2.78;1.30;;;;;;;13.35;88.11;94568.66;4872941;29;20064;-75
2021/06/14 16:04:33;;;;;;;1.73;1.40;;;;;;;13.57;88.92;94570.88;4873082;29;20060;-74
2021/06/14 16:06:59;;;;;;;5.38;1.42;;;;;;;13.70;88.54;94572.69;4857651;29;20037;-73
2021/06/14 16:09:25;;;;;;;1.48;1.38;;;;;;;13.57;87.80;94564.88;4852222;29;20029;-75
2021/06/14 16:11:50;;;;;;;2.33;1.90;;;;;;;13.50;90.04;94564.06;4872474;29;20041;-76
2021/06/14 16:14:16;;;;;;;5.57;1.60;;;;;;;13.25;89.69;94568.22;4872319;29;20041;-74
2021/06/14 16:16:43;;;;;;;2.47;1.95;;;;;;;13.08;90.32;94552.97;4872907;29;20029;-75
2021/06/14 16:19:08;;;;;;;1.38;1.23;;;;;;;13.03;89.28;94565.72;4872314;29;20036;-74
2021/06/14 16:21:34;;;;;;;1.23;1.10;;;;;;;13.02;89.47;94558.91;4873999;29;20488;-74
2021/06/14 16:23:59;;;;;;;1.52;1.30;;;;;;;13.13;89.28;94565.41;4857089;29;20438;-76
2021/06/14 16:26:24;;;;;;;2.50;1.10;;;;;;;13.50;89.19;94558.84;4845598;29;20491;-74
2021/06/14 16:28:50;;;;;;;2.13;0.98;;;;;;;13.39;88.51;94555.03;4879849;29;20411;-74
2021/06/14 16:31:15;;;;;;;2.60;1.63;;;;;;;13.41;87.79;94552.25;4851513;29;20048;-73
2021/06/14 16:33:41;;;;;;;2.80;1.38;;;;;;;13.55;87.83;94553.88;4872909;29;20084;-75
2021/06/14 16:36:07;;;;;;;1.30;1.15;;;;;;;13.48;87.43;94553.06;4872433;29;20611;-68
2021/06/14 16:38:34;;;;;;;2.88;2.00;;;;;;;13.62;87.65;94560.66;4870673;29;20029;-70